createdAt,value
2023-02-15T00:02:07.096Z,44.88
2023-02-15T00:04:52.393Z,44.89
2023-02-15T00:07:38.814Z,44.91
2023-02-15T00:10:24.513Z,44.77
2023-02-15T00:13:10.077Z,44.73
2023-02-15T00:15:55.668Z,44.61
2023-02-15T00:18:41.042Z,44.53
2023-02-15T00:21:26.422Z,44.67
2023-02-15T00:24:13.687Z,44.68
2023-02-15T00:26:59.642Z,44.60
2023-02-15T00:29:45.049Z,44.68
2023-02-15T00:32:30.343Z,44.63
2023-02-15T00:35:15.677Z,44.64
2023-02-15T00:38:00.986Z,44.66
2023-02-15T00:40:53.546Z,44.70
2023-02-15T00:43:39.085Z,44.52
2023-02-15T00:46:24.517Z,44.73
2023-02-15T00:49:10.435Z,44.56
2023-02-15T00:51:56.566Z,44.62
2023-02-15T00:54:41.849Z,44.77
2023-02-15T00:57:27.309Z,44.62
2023-02-15T01:00:13.279Z,44.48
2023-02-15T01:02:58.915Z,44.55
2023-02-15T01:05:44.251Z,44.69
2023-02-15T01:08:29.734Z,44.55
2023-02-15T01:11:23.153Z,44.44
2023-02-15T01:14:09.957Z,44.59
2023-02-15T01:16:57.925Z,44.44
2023-02-15T01:19:43.262Z,44.46
2023-02-15T01:22:28.511Z,44.37
2023-02-15T01:25:14.042Z,44.48
2023-02-15T01:27:59.546Z,44.49
2023-02-15T01:30:44.990Z,44.32
2023-02-15T01:33:30.601Z,44.40
2023-02-15T01:36:18.416Z,44.35
2023-02-15T01:39:03.897Z,44.52
2023-02-15T01:41:51.900Z,44.42
2023-02-15T01:44:59.492Z,44.41
2023-02-15T01:47:54.242Z,44.34
2023-02-15T01:50:44.056Z,44.48
2023-02-15T01:53:35.508Z,44.50
2023-02-15T01:56:25.995Z,44.55
2023-02-15T01:59:17.861Z,44.30
2023-02-15T02:02:06.120Z,44.45
2023-02-15T02:05:00.190Z,44.59
2023-02-15T02:07:47.895Z,44.32
2023-02-15T02:10:33.482Z,44.24
2023-02-15T02:13:18.740Z,44.43
2023-02-15T02:16:32.101Z,44.21
2023-02-15T02:19:48.851Z,44.24
2023-02-15T02:22:49.476Z,44.32
2023-02-15T02:26:00.108Z,44.16
2023-02-15T02:29:06.078Z,44.18
2023-02-15T02:32:25.475Z,44.26
2023-02-15T02:35:16.971Z,44.14
2023-02-15T02:38:15.699Z,44.15
2023-02-15T02:41:25.130Z,44.18
2023-02-15T02:44:13.815Z,44.13
2023-02-15T02:47:00.394Z,44.13
2023-02-15T02:49:47.505Z,44.24
2023-02-15T02:52:43.982Z,44.33
2023-02-15T02:55:41.319Z,44.09
2023-02-15T02:58:57.430Z,44.11
2023-02-15T03:01:55.305Z,44.30
2023-02-15T03:04:45.333Z,44.15
2023-02-15T03:07:32.665Z,44.07
2023-02-15T03:10:23.225Z,44.12
2023-02-15T03:13:10.202Z,43.91
2023-02-15T03:16:32.944Z,44.13
2023-02-15T03:19:27.643Z,43.99
2023-02-15T03:22:29.163Z,44.05
2023-02-15T03:25:28.047Z,43.88
2023-02-15T03:28:20.088Z,43.76
2023-02-15T03:31:07.857Z,43.80
2023-02-15T03:33:58.222Z,43.74
2023-02-15T03:37:16.707Z,43.79
2023-02-15T03:40:26.076Z,43.90
2023-02-15T03:43:20.199Z,43.78
2023-02-15T03:46:12.484Z,43.99
2023-02-15T03:49:27.325Z,43.83
2023-02-15T03:52:15.847Z,43.63
2023-02-15T03:55:01.184Z,43.96
2023-02-15T03:58:05.994Z,43.98
2023-02-15T04:01:24.356Z,43.58
2023-02-15T04:04:18.939Z,42.48
2023-02-15T04:07:09.130Z,41.97
2023-02-15T04:10:13.440Z,41.30
2023-02-15T04:12:58.704Z,40.58
2023-02-15T04:16:02.823Z,39.96
2023-02-15T04:19:06.799Z,39.60
2023-02-15T04:22:10.733Z,38.94
2023-02-15T04:25:14.152Z,38.63
2023-02-15T04:27:59.598Z,37.84
2023-02-15T04:30:44.963Z,37.35
2023-02-15T04:33:30.369Z,38.03
2023-02-15T04:36:15.758Z,39.21
2023-02-15T04:39:01.149Z,39.23
2023-02-15T04:41:46.604Z,39.59
2023-02-15T04:44:32.205Z,39.79
2023-02-15T04:47:17.580Z,39.53
2023-02-15T04:50:03.273Z,39.83
2023-02-15T04:52:48.603Z,40.18
2023-02-15T04:55:33.961Z,40.58
2023-02-15T04:58:19.242Z,40.55
2023-02-15T05:01:04.697Z,40.56
2023-02-15T05:03:50.709Z,40.90
2023-02-15T05:06:36.452Z,40.43
2023-02-15T05:09:21.836Z,40.87
2023-02-15T05:12:07.493Z,40.77
2023-02-15T05:14:53.196Z,40.53
2023-02-15T05:17:39.347Z,40.07
2023-02-15T05:20:24.643Z,40.11
2023-02-15T05:23:10.487Z,40.31
2023-02-15T05:26:14.295Z,40.19
2023-02-15T05:28:59.610Z,40.46
2023-02-15T05:31:48.314Z,40.48
2023-02-15T05:34:33.466Z,40.61
2023-02-15T05:37:19.430Z,40.62
2023-02-15T05:40:05.470Z,40.53
2023-02-15T05:42:51.015Z,40.63
2023-02-15T05:45:36.571Z,40.68
2023-02-15T05:48:24.194Z,40.66
2023-02-15T05:51:13.950Z,40.79
2023-02-15T05:53:59.593Z,40.91
2023-02-15T05:56:44.889Z,40.94
2023-02-15T05:59:35.011Z,41.06
2023-02-15T06:02:20.944Z,41.08
2023-02-15T06:05:07.595Z,41.23
2023-02-15T06:07:53.052Z,41.18
2023-02-15T06:10:38.294Z,41.19
2023-02-15T06:13:23.796Z,41.05
2023-02-15T06:16:19.452Z,41.12
2023-02-15T06:19:36.581Z,41.14
2023-02-15T06:22:21.893Z,40.96
2023-02-15T06:25:19.725Z,41.00
2023-02-15T06:28:05.185Z,40.98
2023-02-15T06:30:50.366Z,41.11
2023-02-15T06:33:35.674Z,41.02
2023-02-15T06:36:20.913Z,41.08
2023-02-15T06:39:06.409Z,41.21
2023-02-15T06:41:52.256Z,41.15
2023-02-15T06:44:37.409Z,41.41
2023-02-15T06:47:22.820Z,41.26
2023-02-15T06:50:09.181Z,41.47
2023-02-15T06:52:58.841Z,41.23
2023-02-15T06:55:44.406Z,41.52
2023-02-15T06:58:30.024Z,41.41
2023-02-15T07:01:15.550Z,41.53
2023-02-15T07:04:00.841Z,41.34
2023-02-15T07:06:46.823Z,41.50
2023-02-15T07:09:32.341Z,41.41
2023-02-15T07:12:36.253Z,41.41
2023-02-15T07:15:22.842Z,41.25
2023-02-15T07:18:08.641Z,41.25
2023-02-15T07:20:54.424Z,41.38
2023-02-15T07:23:40.517Z,41.23
2023-02-15T07:26:26.299Z,41.52
2023-02-15T07:29:11.649Z,41.37
2023-02-15T07:31:56.997Z,41.26
2023-02-15T07:34:42.882Z,41.42
2023-02-15T07:37:28.967Z,41.44
2023-02-15T07:40:14.569Z,41.54
2023-02-15T07:43:00.162Z,41.38
2023-02-15T07:45:45.414Z,41.48
2023-02-15T07:48:31.595Z,41.51
2023-02-15T07:51:17.212Z,41.56
2023-02-15T07:54:02.653Z,41.45
2023-02-15T07:56:48.503Z,41.61
2023-02-15T07:59:33.825Z,41.50
2023-02-15T08:02:19.105Z,41.64
2023-02-15T08:05:04.611Z,41.51
2023-02-15T08:07:51.578Z,41.55
2023-02-15T08:10:55.285Z,41.53
2023-02-15T08:13:54.528Z,41.67
2023-02-15T08:16:57.265Z,41.30
2023-02-15T08:19:42.952Z,41.72
2023-02-15T08:22:28.137Z,41.72
2023-02-15T08:25:13.506Z,41.65
2023-02-15T08:27:58.875Z,41.72
2023-02-15T08:30:44.333Z,41.79
2023-02-15T08:33:29.768Z,41.78
2023-02-15T08:36:19.055Z,41.99
2023-02-15T08:39:06.760Z,42.00
2023-02-15T08:41:52.384Z,42.08
2023-02-15T08:44:37.598Z,41.92
2023-02-15T08:47:22.877Z,42.00
2023-02-15T08:50:08.357Z,41.91
2023-02-15T08:52:54.134Z,42.02
2023-02-15T08:55:40.783Z,42.05
2023-02-15T08:58:26.674Z,42.01
2023-02-15T09:01:21.586Z,41.73
2023-02-15T09:04:11.497Z,42.11
2023-02-15T09:06:57.205Z,42.08
2023-02-15T09:09:42.625Z,41.94
2023-02-15T09:12:27.952Z,42.05
2023-02-15T09:15:13.280Z,42.09
2023-02-15T09:18:02.383Z,41.92
2023-02-15T09:20:47.886Z,42.13
2023-02-15T09:23:33.673Z,42.10
2023-02-15T09:26:23.994Z,42.04
2023-02-15T09:29:11.124Z,42.32
2023-02-15T09:31:57.034Z,42.62
2023-02-15T09:34:42.395Z,43.01
2023-02-15T09:37:27.748Z,42.96
2023-02-15T09:40:18.183Z,42.97
2023-02-15T09:43:16.712Z,42.96
2023-02-15T09:46:47.911Z,43.10
2023-02-15T09:49:36.456Z,43.16
2023-02-15T09:52:21.937Z,43.24
2023-02-15T09:55:28.430Z,43.25
2023-02-15T09:58:32.078Z,43.30
2023-02-15T10:01:36.201Z,43.20
2023-02-15T10:04:41.625Z,43.30
2023-02-15T10:08:08.078Z,43.30
2023-02-15T10:11:29.049Z,43.47
2023-02-15T10:14:23.375Z,43.36
2023-02-15T10:17:45.824Z,43.26
2023-02-15T10:20:31.193Z,43.56
2023-02-15T10:23:28.818Z,43.30
2023-02-15T10:26:26.575Z,43.13
2023-02-15T10:29:23.826Z,43.10
2023-02-15T10:32:27.632Z,42.82
2023-02-15T10:35:39.631Z,42.97
2023-02-15T10:38:57.514Z,42.95
2023-02-15T10:42:03.214Z,43.00
2023-02-15T10:45:07.051Z,43.02
2023-02-15T10:48:21.486Z,42.93
2023-02-15T10:51:17.601Z,43.08
2023-02-15T10:54:24.400Z,42.90
2023-02-15T10:57:34.183Z,42.87
2023-02-15T11:00:47.851Z,42.72
2023-02-15T11:04:26.269Z,42.98
2023-02-15T11:07:46.749Z,42.87
2023-02-15T11:10:53.025Z,43.19
2023-02-15T11:13:48.442Z,43.11
2023-02-15T11:16:39.873Z,43.33
2023-02-15T11:19:33.344Z,43.14
2023-02-15T11:22:18.886Z,42.85
2023-02-15T11:25:18.927Z,42.63
2023-02-15T11:28:11.481Z,42.34
2023-02-15T11:30:59.912Z,42.03
2023-02-15T11:33:52.642Z,41.90
2023-02-15T11:36:44.824Z,42.01
2023-02-15T11:39:33.267Z,41.90
2023-02-15T11:42:25.677Z,41.97
2023-02-15T11:45:24.739Z,41.68
2023-02-15T11:48:13.109Z,41.74
2023-02-15T11:50:59.388Z,41.77
2023-02-15T11:53:46.355Z,41.66
2023-02-15T11:56:34.182Z,41.77
2023-02-15T11:59:30.944Z,41.89
2023-02-15T12:02:19.314Z,41.94
2023-02-15T12:05:13.112Z,42.08
2023-02-15T12:08:23.233Z,42.10
2023-02-15T12:11:23.525Z,42.24
2023-02-15T12:14:11.214Z,42.25
2023-02-15T12:16:57.712Z,42.45
2023-02-15T12:19:44.878Z,42.63
2023-02-15T12:22:37.344Z,42.65
2023-02-15T12:25:43.560Z,42.85
2023-02-15T12:28:38.979Z,42.93
2023-02-15T12:31:37.553Z,42.99
2023-02-15T12:34:42.229Z,42.89
2023-02-15T12:37:32.973Z,42.95
2023-02-15T12:40:31.312Z,43.35
2023-02-15T12:43:30.642Z,43.67
2023-02-15T12:46:24.116Z,43.62
2023-02-15T12:49:21.268Z,43.64
2023-02-15T12:52:27.057Z,43.81
2023-02-15T12:55:19.751Z,43.85
2023-02-15T12:58:18.893Z,44.13
2023-02-15T13:01:10.449Z,44.18
2023-02-15T13:03:59.090Z,44.12
2023-02-15T13:06:50.833Z,44.23
2023-02-15T13:09:40.706Z,44.04
2023-02-15T13:12:35.154Z,44.14
2023-02-15T13:15:39.636Z,44.12
2023-02-15T13:18:38.809Z,44.13
2023-02-15T13:21:37.248Z,44.04
2023-02-15T13:24:33.917Z,44.03
2023-02-15T13:27:34.182Z,43.76
2023-02-15T13:30:26.116Z,43.71
2023-02-15T13:33:27.289Z,43.68
2023-02-15T13:36:30.287Z,43.59
2023-02-15T13:39:15.695Z,43.63
2023-02-15T13:42:16.651Z,43.70
2023-02-15T13:45:38.899Z,43.92
2023-02-15T13:48:50.294Z,44.10
2023-02-15T13:51:36.469Z,44.18
2023-02-15T13:54:53.114Z,44.21
2023-02-15T13:58:00.422Z,44.06
2023-02-15T14:01:12.773Z,43.91
2023-02-15T14:04:03.272Z,43.90
2023-02-15T14:06:57.798Z,43.79
2023-02-15T14:10:01.532Z,43.72
2023-02-15T14:18:51.314Z,44.17
2023-02-15T14:21:43.795Z,44.51
2023-02-15T14:24:45.482Z,45.05
2023-02-15T14:27:49.789Z,45.36
2023-02-15T14:30:44.411Z,45.54
2023-02-15T14:33:36.347Z,45.80
2023-02-15T14:36:24.504Z,45.83
2023-02-15T14:39:57.615Z,45.99
2023-02-15T14:43:02.733Z,46.04
2023-02-15T14:46:11.448Z,45.86
2023-02-15T14:49:19.239Z,45.78
2023-02-15T14:52:08.197Z,45.44
2023-02-15T14:54:55.495Z,45.20
2023-02-15T14:57:57.525Z,44.87
2023-02-15T15:00:43.840Z,44.67
2023-02-15T15:03:29.152Z,44.56
2023-02-15T15:06:27.738Z,44.57
2023-02-15T15:09:27.956Z,44.76
2023-02-15T15:12:37.915Z,44.42
2023-02-15T15:15:32.134Z,43.46
2023-02-15T15:18:56.725Z,43.25
2023-02-15T15:21:47.443Z,44.17
2023-02-15T15:24:38.777Z,44.73
2023-02-15T15:27:54.237Z,45.60
2023-02-15T15:30:40.649Z,46.31
2023-02-15T15:33:47.821Z,46.60
2023-02-15T15:37:02.313Z,46.80
2023-02-15T15:40:16.384Z,46.84
2023-02-15T18:52:19.277Z,45.34
2023-02-15T18:55:16.854Z,45.19
2023-02-15T18:58:02.459Z,45.06
2023-02-15T19:00:48.474Z,45.01
2023-02-15T19:03:33.956Z,44.88
2023-02-15T19:06:25.866Z,45.19
2023-02-15T19:09:18.462Z,45.27
2023-02-15T19:12:03.897Z,45.40
2023-02-15T19:14:51.259Z,45.52
2023-02-15T19:17:36.638Z,45.34
2023-02-15T19:20:25.573Z,45.29
2023-02-15T19:23:23.688Z,45.32
2023-02-15T19:26:10.647Z,45.30
2023-02-15T19:28:56.191Z,45.43
2023-02-15T19:31:42.167Z,45.39
2023-02-15T19:34:27.754Z,45.45
2023-02-15T19:37:24.438Z,45.39
2023-02-15T19:40:31.597Z,45.34
2023-02-15T19:43:20.406Z,45.76
2023-02-15T19:46:06.245Z,45.38
2023-02-15T19:48:53.420Z,45.40
2023-02-15T19:51:39.898Z,45.42
2023-02-15T19:54:33.294Z,45.27
2023-02-15T19:57:19.447Z,45.47
2023-02-15T20:00:22.251Z,45.58
2023-02-15T20:03:07.980Z,45.77
2023-02-15T20:05:53.595Z,46.09
2023-02-15T20:08:39.342Z,46.31
2023-02-15T20:11:24.592Z,46.22
2023-02-15T20:14:14.340Z,46.35
2023-02-15T20:16:59.922Z,46.34
2023-02-15T20:19:46.295Z,46.30
2023-02-15T20:22:32.646Z,46.32
2023-02-15T20:25:30.240Z,46.01
2023-02-15T20:28:18.224Z,46.10
2023-02-15T20:31:04.100Z,46.04
2023-02-15T20:33:49.683Z,45.88
2023-02-15T20:36:35.522Z,45.86
2023-02-15T20:39:21.163Z,45.54
2023-02-15T20:42:06.613Z,45.54
2023-02-15T20:44:52.030Z,45.35
2023-02-15T20:47:37.165Z,45.20
2023-02-15T20:50:29.434Z,45.05
2023-02-15T20:53:14.786Z,45.06
2023-02-15T20:56:00.046Z,44.98
2023-02-15T20:58:45.692Z,45.06
2023-02-15T21:01:32.251Z,45.03
2023-02-15T21:04:20.290Z,45.21
2023-02-15T21:07:06.134Z,45.25
2023-02-15T21:09:54.170Z,45.30
2023-02-15T21:12:39.571Z,45.43
2023-02-15T21:15:32.844Z,45.46
2023-02-15T21:18:27.369Z,45.50
2023-02-15T21:21:20.314Z,45.48
2023-02-15T21:24:06.310Z,45.67
2023-02-15T21:26:52.678Z,45.62
2023-02-15T21:29:38.156Z,45.67
2023-02-15T21:32:23.614Z,45.64
2023-02-15T21:35:13.662Z,45.69
2023-02-15T21:37:59.096Z,45.63
2023-02-15T21:40:44.664Z,45.47
2023-02-15T21:43:48.869Z,45.58
2023-02-15T21:46:52.704Z,45.77
2023-02-15T21:49:37.920Z,45.87
2023-02-15T21:52:23.820Z,45.96
2023-02-15T21:55:14.871Z,45.83
2023-02-15T21:58:00.726Z,46.00
2023-02-15T22:00:46.984Z,46.12
2023-02-15T22:03:34.869Z,46.16
2023-02-15T22:06:20.788Z,46.09
2023-02-15T22:09:17.739Z,46.20
2023-02-15T22:12:02.928Z,46.14
2023-02-15T22:14:54.164Z,46.17
2023-02-15T22:17:39.705Z,46.38
2023-02-15T22:20:25.424Z,46.28
2023-02-15T22:23:11.730Z,46.32
2023-02-15T22:26:02.501Z,46.41
2023-02-15T22:28:48.222Z,46.26
2023-02-15T22:31:33.832Z,46.28
2023-02-15T22:34:27.930Z,46.42
2023-02-15T22:37:13.248Z,46.46
2023-02-15T22:39:58.427Z,46.38
2023-02-15T22:42:47.535Z,46.31
2023-02-15T22:45:35.662Z,46.48
2023-02-15T22:48:22.585Z,46.49
2023-02-15T22:51:12.621Z,46.48
2023-02-15T22:53:58.174Z,46.40
2023-02-15T22:56:52.736Z,46.42
2023-02-15T22:59:38.345Z,46.46
2023-02-15T23:02:24.139Z,46.40
2023-02-15T23:05:21.497Z,46.51
2023-02-15T23:08:07.424Z,46.46
2023-02-15T23:10:55.835Z,46.53
2023-02-15T23:13:41.343Z,46.42
2023-02-15T23:16:26.720Z,46.43
2023-02-15T23:19:15.218Z,46.33
2023-02-15T23:22:00.424Z,46.65
2023-02-15T23:24:52.521Z,46.69
2023-02-15T23:27:56.350Z,46.66
2023-02-15T23:30:41.760Z,46.76
2023-02-15T23:33:33.492Z,46.67
2023-02-15T23:36:24.688Z,46.51
2023-02-15T23:39:44.712Z,46.58
2023-02-15T23:42:33.333Z,46.59
2023-02-15T23:45:22.943Z,46.61
2023-02-15T23:48:34.378Z,46.42
2023-02-15T23:51:21.721Z,46.44
2023-02-15T23:54:06.953Z,46.61
2023-02-15T23:57:00.122Z,46.55
2023-02-15T23:59:45.523Z,46.55
